sensor_id;sensor_type;location;lat;lon;timestamp;temperature;humidity
42095;DHT22;27753;55.724;37.612;2023-03-23T00:00:52;6.70;82.00
42095;DHT22;27753;55.724;37.612;2023-03-23T00:03:20;6.80;82.00
42095;DHT22;27753;55.724;37.612;2023-03-23T00:05:47;6.70;82.00
42095;DHT22;27753;55.724;37.612;2023-03-23T00:08:19;6.80;82.20
42095;DHT22;27753;55.724;37.612;2023-03-23T00:10:51;6.80;82.20
42095;DHT22;27753;55.724;37.612;2023-03-23T00:13:28;6.80;82.20
42095;DHT22;27753;55.724;37.612;2023-03-23T00:15:54;6.80;82.10
42095;DHT22;27753;55.724;37.612;2023-03-23T00:18:22;6.80;82.20
42095;DHT22;27753;55.724;37.612;2023-03-23T00:20:54;6.70;82.30
42095;DHT22;27753;55.724;37.612;2023-03-23T00:23:22;6.70;82.40
42095;DHT22;27753;55.724;37.612;2023-03-23T00:25:52;6.80;82.40
42095;DHT22;27753;55.724;37.612;2023-03-23T00:28:24;6.80;82.40
42095;DHT22;27753;55.724;37.612;2023-03-23T00:31:06;6.80;82.30
42095;DHT22;27753;55.724;37.612;2023-03-23T00:33:34;6.80;82.40
42095;DHT22;27753;55.724;37.612;2023-03-23T00:36:13;6.80;82.30
42095;DHT22;27753;55.724;37.612;2023-03-23T00:38:40;6.80;82.40
42095;DHT22;27753;55.724;37.612;2023-03-23T00:41:07;6.80;82.30
42095;DHT22;27753;55.724;37.612;2023-03-23T00:43:33;6.80;82.20
42095;DHT22;27753;55.724;37.612;2023-03-23T00:46:03;6.80;82.20
42095;DHT22;27753;55.724;37.612;2023-03-23T00:48:38;6.80;82.30
42095;DHT22;27753;55.724;37.612;2023-03-23T00:51:13;6.80;82.40
42095;DHT22;27753;55.724;37.612;2023-03-23T00:53:40;6.80;82.40
42095;DHT22;27753;55.724;37.612;2023-03-23T00:56:07;6.80;82.40
42095;DHT22;27753;55.724;37.612;2023-03-23T00:58:33;6.80;82.50
42095;DHT22;27753;55.724;37.612;2023-03-23T01:00:59;6.70;82.40
42095;DHT22;27753;55.724;37.612;2023-03-23T01:03:25;6.70;82.60
42095;DHT22;27753;55.724;37.612;2023-03-23T01:05:52;6.70;82.70
42095;DHT22;27753;55.724;37.612;2023-03-23T01:08:19;6.70;82.80
42095;DHT22;27753;55.724;37.612;2023-03-23T01:10:45;6.80;82.90
42095;DHT22;27753;55.724;37.612;2023-03-23T01:13:12;6.70;82.90
42095;DHT22;27753;55.724;37.612;2023-03-23T01:15:38;6.80;83.00
42095;DHT22;27753;55.724;37.612;2023-03-23T01:18:05;6.80;82.90
42095;DHT22;27753;55.724;37.612;2023-03-23T01:20:31;6.80;82.90
42095;DHT22;27753;55.724;37.612;2023-03-23T01:22:58;6.80;82.90
42095;DHT22;27753;55.724;37.612;2023-03-23T01:25:28;6.70;83.10
42095;DHT22;27753;55.724;37.612;2023-03-23T01:27:54;6.70;83.10
42095;DHT22;27753;55.724;37.612;2023-03-23T01:30:20;6.70;83.10
42095;DHT22;27753;55.724;37.612;2023-03-23T01:32:46;6.70;83.80
42095;DHT22;27753;55.724;37.612;2023-03-23T01:35:15;6.70;83.40
42095;DHT22;27753;55.724;37.612;2023-03-23T01:37:41;6.70;83.60
42095;DHT22;27753;55.724;37.612;2023-03-23T01:40:08;6.70;83.70
42095;DHT22;27753;55.724;37.612;2023-03-23T01:42:36;6.70;83.90
42095;DHT22;27753;55.724;37.612;2023-03-23T01:45:28;6.70;84.10
42095;DHT22;27753;55.724;37.612;2023-03-23T01:48:16;6.70;84.20
42095;DHT22;27753;55.724;37.612;2023-03-23T01:53:13;6.60;85.00
42095;DHT22;27753;55.724;37.612;2023-03-23T01:55:41;6.60;84.60
42095;DHT22;27753;55.724;37.612;2023-03-23T01:58:09;6.60;84.80
42095;DHT22;27753;55.724;37.612;2023-03-23T02:00:37;6.60;84.80
42095;DHT22;27753;55.724;37.612;2023-03-23T02:03:06;6.60;85.00
42095;DHT22;27753;55.724;37.612;2023-03-23T02:05:37;6.60;84.90
42095;DHT22;27753;55.724;37.612;2023-03-23T02:08:04;6.70;84.90
42095;DHT22;27753;55.724;37.612;2023-03-23T02:10:33;6.70;84.80
42095;DHT22;27753;55.724;37.612;2023-03-23T02:13:01;6.60;84.60
42095;DHT22;27753;55.724;37.612;2023-03-23T02:15:37;6.70;84.70
42095;DHT22;27753;55.724;37.612;2023-03-23T02:21:33;6.60;84.80
42095;DHT22;27753;55.724;37.612;2023-03-23T02:27:20;6.60;84.80
42095;DHT22;27753;55.724;37.612;2023-03-23T02:35:44;6.50;84.90
42095;DHT22;27753;55.724;37.612;2023-03-23T02:38:18;6.40;85.10
42095;DHT22;27753;55.724;37.612;2023-03-23T02:40:47;6.30;85.40
42095;DHT22;27753;55.724;37.612;2023-03-23T02:43:16;6.20;85.70
42095;DHT22;27753;55.724;37.612;2023-03-23T02:45:45;6.20;86.00
42095;DHT22;27753;55.724;37.612;2023-03-23T02:48:14;6.10;86.30
42095;DHT22;27753;55.724;37.612;2023-03-23T02:50:43;6.10;86.60
42095;DHT22;27753;55.724;37.612;2023-03-23T02:53:12;6.20;87.40
42095;DHT22;27753;55.724;37.612;2023-03-23T02:55:41;6.20;86.90
42095;DHT22;27753;55.724;37.612;2023-03-23T02:58:12;6.20;86.90
42095;DHT22;27753;55.724;37.612;2023-03-23T03:00:38;6.20;87.10
42095;DHT22;27753;55.724;37.612;2023-03-23T03:03:05;6.30;87.20
42095;DHT22;27753;55.724;37.612;2023-03-23T03:05:48;6.30;87.30
42095;DHT22;27753;55.724;37.612;2023-03-23T03:11:13;6.30;87.50
42095;DHT22;27753;55.724;37.612;2023-03-23T03:13:46;6.30;87.40
42095;DHT22;27753;55.724;37.612;2023-03-23T03:19:05;6.20;87.60
42095;DHT22;27753;55.724;37.612;2023-03-23T03:21:40;6.20;87.80
42095;DHT22;27753;55.724;37.612;2023-03-23T03:24:07;6.20;88.10
42095;DHT22;27753;55.724;37.612;2023-03-23T03:26:39;6.10;88.00
42095;DHT22;27753;55.724;37.612;2023-03-23T03:29:07;6.10;88.20
42095;DHT22;27753;55.724;37.612;2023-03-23T03:31:36;6.10;88.40
42095;DHT22;27753;55.724;37.612;2023-03-23T03:34:04;6.10;88.70
42095;DHT22;27753;55.724;37.612;2023-03-23T03:36:33;6.10;88.70
42095;DHT22;27753;55.724;37.612;2023-03-23T03:39:08;6.10;89.00
42095;DHT22;27753;55.724;37.612;2023-03-23T03:41:35;6.00;89.20
42095;DHT22;27753;55.724;37.612;2023-03-23T03:44:05;6.00;89.40
42095;DHT22;27753;55.724;37.612;2023-03-23T03:46:33;6.00;89.40
42095;DHT22;27753;55.724;37.612;2023-03-23T03:49:00;5.90;89.50
42095;DHT22;27753;55.724;37.612;2023-03-23T03:51:27;5.90;89.70
42095;DHT22;27753;55.724;37.612;2023-03-23T03:53:53;5.80;90.00
42095;DHT22;27753;55.724;37.612;2023-03-23T03:56:20;5.70;89.80
42095;DHT22;27753;55.724;37.612;2023-03-23T03:58:48;5.60;90.20
42095;DHT22;27753;55.724;37.612;2023-03-23T04:01:18;5.60;90.40
42095;DHT22;27753;55.724;37.612;2023-03-23T04:03:47;5.60;90.50
42095;DHT22;27753;55.724;37.612;2023-03-23T04:06:13;5.60;90.70
42095;DHT22;27753;55.724;37.612;2023-03-23T04:08:39;5.50;90.80
42095;DHT22;27753;55.724;37.612;2023-03-23T04:11:08;5.60;91.00
42095;DHT22;27753;55.724;37.612;2023-03-23T04:13:34;5.60;91.30
42095;DHT22;27753;55.724;37.612;2023-03-23T04:16:00;5.80;91.50
42095;DHT22;27753;55.724;37.612;2023-03-23T04:18:26;6.00;91.40
42095;DHT22;27753;55.724;37.612;2023-03-23T04:20:52;6.20;91.10
42095;DHT22;27753;55.724;37.612;2023-03-23T04:23:20;6.50;90.60
42095;DHT22;27753;55.724;37.612;2023-03-23T04:25:49;6.80;90.30
42095;DHT22;27753;55.724;37.612;2023-03-23T04:28:16;7.00;89.50
42095;DHT22;27753;55.724;37.612;2023-03-23T04:30:44;7.30;88.70
42095;DHT22;27753;55.724;37.612;2023-03-23T04:33:11;7.40;87.50
42095;DHT22;27753;55.724;37.612;2023-03-23T04:35:42;7.30;86.60
42095;DHT22;27753;55.724;37.612;2023-03-23T04:38:11;7.00;87.00
42095;DHT22;27753;55.724;37.612;2023-03-23T04:40:39;6.70;87.90
42095;DHT22;27753;55.724;37.612;2023-03-23T04:43:06;6.50;88.50
42095;DHT22;27753;55.724;37.612;2023-03-23T04:45:33;6.40;89.10
42095;DHT22;27753;55.724;37.612;2023-03-23T04:48:00;6.30;89.60
42095;DHT22;27753;55.724;37.612;2023-03-23T04:50:31;6.20;90.00
42095;DHT22;27753;55.724;37.612;2023-03-23T04:53:02;6.10;90.20
42095;DHT22;27753;55.724;37.612;2023-03-23T04:55:32;6.10;90.40
42095;DHT22;27753;55.724;37.612;2023-03-23T04:58:07;6.00;90.50
42095;DHT22;27753;55.724;37.612;2023-03-23T05:00:34;6.00;90.70
42095;DHT22;27753;55.724;37.612;2023-03-23T05:03:01;6.00;90.80
42095;DHT22;27753;55.724;37.612;2023-03-23T05:05:27;6.00;90.90
42095;DHT22;27753;55.724;37.612;2023-03-23T05:07:56;6.00;91.00
42095;DHT22;27753;55.724;37.612;2023-03-23T05:10:22;6.00;91.00
42095;DHT22;27753;55.724;37.612;2023-03-23T05:12:48;6.00;91.10
42095;DHT22;27753;55.724;37.612;2023-03-23T05:15:15;6.00;91.20
42095;DHT22;27753;55.724;37.612;2023-03-23T05:17:42;6.10;91.30
42095;DHT22;27753;55.724;37.612;2023-03-23T05:20:13;6.10;91.20
42095;DHT22;27753;55.724;37.612;2023-03-23T05:22:41;6.20;91.30
42095;DHT22;27753;55.724;37.612;2023-03-23T05:25:08;6.20;91.30
42095;DHT22;27753;55.724;37.612;2023-03-23T05:27:35;6.20;91.30
42095;DHT22;27753;55.724;37.612;2023-03-23T05:30:01;6.20;91.30
42095;DHT22;27753;55.724;37.612;2023-03-23T05:32:28;6.20;91.40
42095;DHT22;27753;55.724;37.612;2023-03-23T05:34:57;6.20;91.60
42095;DHT22;27753;55.724;37.612;2023-03-23T05:37:24;6.30;91.40
42095;DHT22;27753;55.724;37.612;2023-03-23T05:39:52;6.30;91.40
42095;DHT22;27753;55.724;37.612;2023-03-23T05:42:21;6.40;91.20
42095;DHT22;27753;55.724;37.612;2023-03-23T05:44:49;6.40;91.20
42095;DHT22;27753;55.724;37.612;2023-03-23T05:47:15;6.50;91.30
42095;DHT22;27753;55.724;37.612;2023-03-23T05:49:41;6.50;91.20
42095;DHT22;27753;55.724;37.612;2023-03-23T05:52:07;6.50;91.10
42095;DHT22;27753;55.724;37.612;2023-03-23T05:54:33;6.60;91.00
42095;DHT22;27753;55.724;37.612;2023-03-23T05:57:03;6.50;91.00
42095;DHT22;27753;55.724;37.612;2023-03-23T05:59:28;6.60;91.00
42095;DHT22;27753;55.724;37.612;2023-03-23T06:01:54;6.60;91.00
42095;DHT22;27753;55.724;37.612;2023-03-23T06:04:21;6.70;91.00
42095;DHT22;27753;55.724;37.612;2023-03-23T06:06:50;6.70;90.90
42095;DHT22;27753;55.724;37.612;2023-03-23T06:09:18;6.80;90.80
42095;DHT22;27753;55.724;37.612;2023-03-23T06:11:44;6.80;90.70
42095;DHT22;27753;55.724;37.612;2023-03-23T06:14:11;6.90;90.70
42095;DHT22;27753;55.724;37.612;2023-03-23T06:16:38;7.00;90.60
42095;DHT22;27753;55.724;37.612;2023-03-23T06:19:04;7.00;90.60
42095;DHT22;27753;55.724;37.612;2023-03-23T06:21:33;7.10;90.50
42095;DHT22;27753;55.724;37.612;2023-03-23T06:23:59;7.20;90.50
42095;DHT22;27753;55.724;37.612;2023-03-23T06:26:30;7.30;90.40
42095;DHT22;27753;55.724;37.612;2023-03-23T06:28:56;7.40;90.20
42095;DHT22;27753;55.724;37.612;2023-03-23T06:31:24;7.40;90.00
42095;DHT22;27753;55.724;37.612;2023-03-23T06:33:50;7.60;89.70
42095;DHT22;27753;55.724;37.612;2023-03-23T06:36:16;7.60;89.40
42095;DHT22;27753;55.724;37.612;2023-03-23T06:38:43;7.70;89.20
42095;DHT22;27753;55.724;37.612;2023-03-23T06:41:09;7.70;89.10
42095;DHT22;27753;55.724;37.612;2023-03-23T06:43:35;7.80;88.80
42095;DHT22;27753;55.724;37.612;2023-03-23T06:46:06;7.90;88.60
42095;DHT22;27753;55.724;37.612;2023-03-23T06:48:33;8.00;88.70
42095;DHT22;27753;55.724;37.612;2023-03-23T06:50:59;8.10;88.20
42095;DHT22;27753;55.724;37.612;2023-03-23T06:53:26;8.20;87.90
42095;DHT22;27753;55.724;37.612;2023-03-23T06:55:52;8.30;87.50
42095;DHT22;27753;55.724;37.612;2023-03-23T06:58:17;8.30;87.30
42095;DHT22;27753;55.724;37.612;2023-03-23T07:00:43;8.40;86.90
42095;DHT22;27753;55.724;37.612;2023-03-23T07:03:10;8.50;86.80
42095;DHT22;27753;55.724;37.612;2023-03-23T07:05:35;8.60;86.30
42095;DHT22;27753;55.724;37.612;2023-03-23T07:08:03;8.70;85.90
42095;DHT22;27753;55.724;37.612;2023-03-23T07:10:29;8.80;85.70
42095;DHT22;27753;55.724;37.612;2023-03-23T07:12:55;8.90;85.20
42095;DHT22;27753;55.724;37.612;2023-03-23T07:15:21;9.00;84.90
42095;DHT22;27753;55.724;37.612;2023-03-23T07:17:47;9.10;84.60
42095;DHT22;27753;55.724;37.612;2023-03-23T07:20:13;9.30;84.20
42095;DHT22;27753;55.724;37.612;2023-03-23T07:22:40;9.50;83.60
42095;DHT22;27753;55.724;37.612;2023-03-23T07:25:07;10.30;83.30
42095;DHT22;27753;55.724;37.612;2023-03-23T07:27:33;11.60;79.00
42095;DHT22;27753;55.724;37.612;2023-03-23T07:29:59;13.20;74.80
42095;DHT22;27753;55.724;37.612;2023-03-23T07:32:25;14.50;69.70
42095;DHT22;27753;55.724;37.612;2023-03-23T07:34:51;15.30;65.50
42095;DHT22;27753;55.724;37.612;2023-03-23T07:37:17;15.90;63.30
42095;DHT22;27753;55.724;37.612;2023-03-23T07:39:43;16.50;60.50
42095;DHT22;27753;55.724;37.612;2023-03-23T07:42:10;17.00;59.60
42095;DHT22;27753;55.724;37.612;2023-03-23T07:44:36;17.70;57.50
42095;DHT22;27753;55.724;37.612;2023-03-23T07:47:02;18.80;55.80
42095;DHT22;27753;55.724;37.612;2023-03-23T07:49:28;19.90;53.20
42095;DHT22;27753;55.724;37.612;2023-03-23T07:51:56;20.80;50.10
42095;DHT22;27753;55.724;37.612;2023-03-23T07:54:23;21.50;48.30
42095;DHT22;27753;55.724;37.612;2023-03-23T07:56:49;22.00;46.80
42095;DHT22;27753;55.724;37.612;2023-03-23T07:59:16;22.70;45.80
42095;DHT22;27753;55.724;37.612;2023-03-23T08:01:43;23.20;44.00
42095;DHT22;27753;55.724;37.612;2023-03-23T08:04:09;23.20;42.70
42095;DHT22;27753;55.724;37.612;2023-03-23T08:06:35;23.50;42.20
42095;DHT22;27753;55.724;37.612;2023-03-23T08:09:02;23.70;41.10
42095;DHT22;27753;55.724;37.612;2023-03-23T08:11:35;23.60;40.70
42095;DHT22;27753;55.724;37.612;2023-03-23T08:14:01;23.60;40.70
42095;DHT22;27753;55.724;37.612;2023-03-23T08:16:29;23.10;40.20
42095;DHT22;27753;55.724;37.612;2023-03-23T08:18:55;23.10;41.10
42095;DHT22;27753;55.724;37.612;2023-03-23T08:21:22;23.80;40.40
42095;DHT22;27753;55.724;37.612;2023-03-23T08:23:48;24.10;39.10
42095;DHT22;27753;55.724;37.612;2023-03-23T08:26:14;24.20;38.30
42095;DHT22;27753;55.724;37.612;2023-03-23T08:28:41;24.20;38.70
42095;DHT22;27753;55.724;37.612;2023-03-23T08:31:10;25.50;36.70
42095;DHT22;27753;55.724;37.612;2023-03-23T08:33:37;25.50;36.80
42095;DHT22;27753;55.724;37.612;2023-03-23T08:36:05;26.40;36.30
42095;DHT22;27753;55.724;37.612;2023-03-23T08:38:31;27.20;35.40
42095;DHT22;27753;55.724;37.612;2023-03-23T08:41:03;27.00;34.20
42095;DHT22;27753;55.724;37.612;2023-03-23T08:43:33;26.40;35.00
42095;DHT22;27753;55.724;37.612;2023-03-23T08:46:00;26.50;35.00
42095;DHT22;27753;55.724;37.612;2023-03-23T08:48:32;26.80;34.80
42095;DHT22;27753;55.724;37.612;2023-03-23T08:50:59;27.00;34.80
42095;DHT22;27753;55.724;37.612;2023-03-23T08:53:26;27.20;34.20
42095;DHT22;27753;55.724;37.612;2023-03-23T08:55:56;26.60;34.10
42095;DHT22;27753;55.724;37.612;2023-03-23T08:58:22;25.90;34.80
42095;DHT22;27753;55.724;37.612;2023-03-23T09:00:48;25.30;35.10
42095;DHT22;27753;55.724;37.612;2023-03-23T09:03:14;25.30;35.50
42095;DHT22;27753;55.724;37.612;2023-03-23T09:05:40;25.70;35.30
42095;DHT22;27753;55.724;37.612;2023-03-23T09:08:11;25.00;35.40
42095;DHT22;27753;55.724;37.612;2023-03-23T09:10:38;25.10;35.50
42095;DHT22;27753;55.724;37.612;2023-03-23T09:13:04;25.20;35.70
42095;DHT22;27753;55.724;37.612;2023-03-23T09:15:30;25.60;35.40
42095;DHT22;27753;55.724;37.612;2023-03-23T09:17:57;26.40;34.80
42095;DHT22;27753;55.724;37.612;2023-03-23T09:20:25;27.00;34.20
42095;DHT22;27753;55.724;37.612;2023-03-23T09:22:54;26.70;33.70
42095;DHT22;27753;55.724;37.612;2023-03-23T09:25:22;26.50;33.70
42095;DHT22;27753;55.724;37.612;2023-03-23T09:27:52;26.40;34.00
42095;DHT22;27753;55.724;37.612;2023-03-23T09:30:19;26.80;33.60
42095;DHT22;27753;55.724;37.612;2023-03-23T09:32:46;26.70;33.30
42095;DHT22;27753;55.724;37.612;2023-03-23T09:35:14;26.60;34.50
42095;DHT22;27753;55.724;37.612;2023-03-23T09:37:43;26.70;33.70
42095;DHT22;27753;55.724;37.612;2023-03-23T09:49:55;26.30;34.10
42095;DHT22;27753;55.724;37.612;2023-03-23T09:52:32;26.60;33.70
42095;DHT22;27753;55.724;37.612;2023-03-23T09:54:59;26.20;33.40
42095;DHT22;27753;55.724;37.612;2023-03-23T09:57:40;24.70;34.70
42095;DHT22;27753;55.724;37.612;2023-03-23T10:00:16;24.60;35.40
42095;DHT22;27753;55.724;37.612;2023-03-23T10:07:59;25.10;35.50
42095;DHT22;27753;55.724;37.612;2023-03-23T10:16:14;26.00;34.20
42095;DHT22;27753;55.724;37.612;2023-03-23T10:18:53;26.10;33.30
42095;DHT22;27753;55.724;37.612;2023-03-23T10:21:22;26.10;33.40
42095;DHT22;27753;55.724;37.612;2023-03-23T10:24:02;26.20;33.40
42095;DHT22;27753;55.724;37.612;2023-03-23T10:28:58;23.30;34.50
42095;DHT22;27753;55.724;37.612;2023-03-23T10:31:32;21.70;37.40
42095;DHT22;27753;55.724;37.612;2023-03-23T10:34:10;20.40;39.30
42095;DHT22;27753;55.724;37.612;2023-03-23T10:36:40;19.10;41.30
42095;DHT22;27753;55.724;37.612;2023-03-23T10:39:11;18.30;43.00
42095;DHT22;27753;55.724;37.612;2023-03-23T10:41:38;17.70;43.90
42095;DHT22;27753;55.724;37.612;2023-03-23T10:44:16;16.90;44.10
42095;DHT22;27753;55.724;37.612;2023-03-23T10:49:27;16.60;46.70
42095;DHT22;27753;55.724;37.612;2023-03-23T10:52:34;16.20;47.40
42095;DHT22;27753;55.724;37.612;2023-03-23T10:55:14;15.90;48.20
42095;DHT22;27753;55.724;37.612;2023-03-23T10:58:03;15.70;48.70
42095;DHT22;27753;55.724;37.612;2023-03-23T11:00:29;15.60;49.00
42095;DHT22;27753;55.724;37.612;2023-03-23T11:06:07;15.40;49.60
42095;DHT22;27753;55.724;37.612;2023-03-23T11:08:35;15.30;50.00
42095;DHT22;27753;55.724;37.612;2023-03-23T11:11:21;15.30;49.90
42095;DHT22;27753;55.724;37.612;2023-03-23T11:13:57;15.10;50.20
42095;DHT22;27753;55.724;37.612;2023-03-23T11:16:28;15.10;50.30
42095;DHT22;27753;55.724;37.612;2023-03-23T11:18:55;15.20;50.20
42095;DHT22;27753;55.724;37.612;2023-03-23T11:21:22;15.30;50.10
42095;DHT22;27753;55.724;37.612;2023-03-23T11:23:53;15.20;50.10
42095;DHT22;27753;55.724;37.612;2023-03-23T11:31:27;15.20;50.00
42095;DHT22;27753;55.724;37.612;2023-03-23T11:34:15;15.30;49.90
42095;DHT22;27753;55.724;37.612;2023-03-23T11:36:50;15.30;49.60
42095;DHT22;27753;55.724;37.612;2023-03-23T11:39:30;15.20;50.00
42095;DHT22;27753;55.724;37.612;2023-03-23T11:42:19;15.30;50.10
42095;DHT22;27753;55.724;37.612;2023-03-23T11:44:46;15.40;49.80
42095;DHT22;27753;55.724;37.612;2023-03-23T11:47:23;15.40;50.10
42095;DHT22;27753;55.724;37.612;2023-03-23T11:56:00;15.30;50.30
42095;DHT22;27753;55.724;37.612;2023-03-23T11:58:27;15.30;50.40
42095;DHT22;27753;55.724;37.612;2023-03-23T12:01:32;15.30;50.70
42095;DHT22;27753;55.724;37.612;2023-03-23T12:04:30;15.20;51.00
42095;DHT22;27753;55.724;37.612;2023-03-23T12:07:30;15.10;51.20
42095;DHT22;27753;55.724;37.612;2023-03-23T12:10:24;15.00;51.50
42095;DHT22;27753;55.724;37.612;2023-03-23T12:18:20;15.10;51.50
42095;DHT22;27753;55.724;37.612;2023-03-23T12:23:47;15.20;51.70
42095;DHT22;27753;55.724;37.612;2023-03-23T12:34:58;15.50;51.30
42095;DHT22;27753;55.724;37.612;2023-03-23T12:37:37;15.50;51.40
42095;DHT22;27753;55.724;37.612;2023-03-23T12:42:54;15.40;51.70
42095;DHT22;27753;55.724;37.612;2023-03-23T12:45:43;15.40;51.60
42095;DHT22;27753;55.724;37.612;2023-03-23T12:48:14;15.40;51.90
42095;DHT22;27753;55.724;37.612;2023-03-23T12:51:03;15.30;51.70
42095;DHT22;27753;55.724;37.612;2023-03-23T12:53:44;15.10;52.00
42095;DHT22;27753;55.724;37.612;2023-03-23T12:56:23;15.10;52.40
42095;DHT22;27753;55.724;37.612;2023-03-23T12:58:59;15.00;52.80
42095;DHT22;27753;55.724;37.612;2023-03-23T13:01:35;15.00;52.90
42095;DHT22;27753;55.724;37.612;2023-03-23T13:06:38;14.90;53.00
42095;DHT22;27753;55.724;37.612;2023-03-23T13:09:22;14.90;53.20
42095;DHT22;27753;55.724;37.612;2023-03-23T13:11:51;14.80;53.40
42095;DHT22;27753;55.724;37.612;2023-03-23T13:14:40;14.70;53.70
42095;DHT22;27753;55.724;37.612;2023-03-23T13:17:32;14.50;53.80
42095;DHT22;27753;55.724;37.612;2023-03-23T13:20:34;14.30;54.30
42095;DHT22;27753;55.724;37.612;2023-03-23T13:23:21;14.10;54.80
42095;DHT22;27753;55.724;37.612;2023-03-23T13:26:00;14.10;55.30
42095;DHT22;27753;55.724;37.612;2023-03-23T13:31:25;14.10;55.30
42095;DHT22;27753;55.724;37.612;2023-03-23T13:33:56;14.00;55.40
42095;DHT22;27753;55.724;37.612;2023-03-23T13:36:41;13.80;55.70
42095;DHT22;27753;55.724;37.612;2023-03-23T13:39:19;13.70;56.00
42095;DHT22;27753;55.724;37.612;2023-03-23T13:42:16;13.70;56.20
42095;DHT22;27753;55.724;37.612;2023-03-23T13:44:56;13.70;56.50
42095;DHT22;27753;55.724;37.612;2023-03-23T13:49:59;13.70;56.70
42095;DHT22;27753;55.724;37.612;2023-03-23T13:52:53;13.70;56.80
42095;DHT22;27753;55.724;37.612;2023-03-23T13:55:41;13.80;56.90
42095;DHT22;27753;55.724;37.612;2023-03-23T14:00:37;13.80;57.30
42095;DHT22;27753;55.724;37.612;2023-03-23T14:03:17;13.80;57.10
42095;DHT22;27753;55.724;37.612;2023-03-23T14:11:00;13.90;57.30
42095;DHT22;27753;55.724;37.612;2023-03-23T14:16:43;13.70;57.60
42095;DHT22;27753;55.724;37.612;2023-03-23T14:19:21;13.70;57.80
42095;DHT22;27753;55.724;37.612;2023-03-23T14:22:16;13.60;58.00
42095;DHT22;27753;55.724;37.612;2023-03-23T14:24:42;13.50;58.30
42095;DHT22;27753;55.724;37.612;2023-03-23T14:27:18;13.30;58.90
42095;DHT22;27753;55.724;37.612;2023-03-23T14:29:44;13.20;59.50
42095;DHT22;27753;55.724;37.612;2023-03-23T14:32:15;13.10;59.80
42095;DHT22;27753;55.724;37.612;2023-03-23T14:34:42;13.10;60.00
42095;DHT22;27753;55.724;37.612;2023-03-23T14:37:16;13.10;60.10
42095;DHT22;27753;55.724;37.612;2023-03-23T14:39:48;13.00;60.60
42095;DHT22;27753;55.724;37.612;2023-03-23T14:42:16;12.80;61.50
42095;DHT22;27753;55.724;37.612;2023-03-23T14:44:45;12.60;62.40
42095;DHT22;27753;55.724;37.612;2023-03-23T14:47:28;12.60;63.00
42095;DHT22;27753;55.724;37.612;2023-03-23T14:49:59;12.50;63.20
42095;DHT22;27753;55.724;37.612;2023-03-23T14:52:28;12.50;63.10
42095;DHT22;27753;55.724;37.612;2023-03-23T14:55:06;12.40;63.00
42095;DHT22;27753;55.724;37.612;2023-03-23T14:57:33;12.40;63.40
42095;DHT22;27753;55.724;37.612;2023-03-23T14:59:59;12.30;63.80
42095;DHT22;27753;55.724;37.612;2023-03-23T15:02:37;12.20;63.90
42095;DHT22;27753;55.724;37.612;2023-03-23T15:05:15;12.20;64.90
42095;DHT22;27753;55.724;37.612;2023-03-23T15:07:46;12.00;64.60
42095;DHT22;27753;55.724;37.612;2023-03-23T15:10:21;12.00;65.10
42095;DHT22;27753;55.724;37.612;2023-03-23T15:12:49;11.90;65.30
42095;DHT22;27753;55.724;37.612;2023-03-23T15:15:34;11.90;65.60
42095;DHT22;27753;55.724;37.612;2023-03-23T15:18:02;11.90;65.60
42095;DHT22;27753;55.724;37.612;2023-03-23T15:20:47;11.90;65.90
42095;DHT22;27753;55.724;37.612;2023-03-23T15:23:16;11.90;66.00
42095;DHT22;27753;55.724;37.612;2023-03-23T15:26:05;11.80;66.10
42095;DHT22;27753;55.724;37.612;2023-03-23T15:28:32;11.80;66.40
42095;DHT22;27753;55.724;37.612;2023-03-23T15:31:04;11.70;66.50
42095;DHT22;27753;55.724;37.612;2023-03-23T15:34:04;11.70;66.80
42095;DHT22;27753;55.724;37.612;2023-03-23T15:39:42;11.70;66.90
42095;DHT22;27753;55.724;37.612;2023-03-23T15:42:31;11.70;66.80
42095;DHT22;27753;55.724;37.612;2023-03-23T15:45:34;11.80;66.80
42095;DHT22;27753;55.724;37.612;2023-03-23T15:48:51;11.70;66.80
42095;DHT22;27753;55.724;37.612;2023-03-23T15:51:45;11.80;66.70
42095;DHT22;27753;55.724;37.612;2023-03-23T15:55:14;11.70;66.60
42095;DHT22;27753;55.724;37.612;2023-03-23T16:00:42;11.60;66.90
42095;DHT22;27753;55.724;37.612;2023-03-23T16:06:26;11.60;67.10
42095;DHT22;27753;55.724;37.612;2023-03-23T16:08:58;11.50;67.40
42095;DHT22;27753;55.724;37.612;2023-03-23T16:11:27;11.50;67.40
42095;DHT22;27753;55.724;37.612;2023-03-23T16:13:53;11.50;67.50
42095;DHT22;27753;55.724;37.612;2023-03-23T16:16:26;11.50;67.50
42095;DHT22;27753;55.724;37.612;2023-03-23T16:18:52;11.50;67.60
42095;DHT22;27753;55.724;37.612;2023-03-23T16:21:19;11.50;67.60
42095;DHT22;27753;55.724;37.612;2023-03-23T16:23:45;11.50;67.60
42095;DHT22;27753;55.724;37.612;2023-03-23T16:26:12;11.50;67.60
42095;DHT22;27753;55.724;37.612;2023-03-23T16:28:39;11.50;67.70
42095;DHT22;27753;55.724;37.612;2023-03-23T16:31:05;11.40;67.80
42095;DHT22;27753;55.724;37.612;2023-03-23T16:33:31;11.40;67.90
42095;DHT22;27753;55.724;37.612;2023-03-23T16:35:57;11.40;67.90
42095;DHT22;27753;55.724;37.612;2023-03-23T16:38:24;11.30;68.00
42095;DHT22;27753;55.724;37.612;2023-03-23T16:43:16;11.30;67.70
42095;DHT22;27753;55.724;37.612;2023-03-23T16:45:44;11.30;68.40
42095;DHT22;27753;55.724;37.612;2023-03-23T16:48:12;11.30;68.50
42095;DHT22;27753;55.724;37.612;2023-03-23T16:50:40;11.20;68.40
42095;DHT22;27753;55.724;37.612;2023-03-23T16:53:07;11.20;68.40
42095;DHT22;27753;55.724;37.612;2023-03-23T16:55:35;11.20;68.50
42095;DHT22;27753;55.724;37.612;2023-03-23T16:58:02;11.20;68.50
42095;DHT22;27753;55.724;37.612;2023-03-23T17:00:28;11.10;68.50
42095;DHT22;27753;55.724;37.612;2023-03-23T17:02:55;11.10;68.60
42095;DHT22;27753;55.724;37.612;2023-03-23T17:05:27;11.00;68.70
42095;DHT22;27753;55.724;37.612;2023-03-23T17:07:54;11.00;68.90
42095;DHT22;27753;55.724;37.612;2023-03-23T17:10:21;10.90;69.00
42095;DHT22;27753;55.724;37.612;2023-03-23T17:12:48;10.80;69.10
42095;DHT22;27753;55.724;37.612;2023-03-23T17:15:14;10.90;69.40
42095;DHT22;27753;55.724;37.612;2023-03-23T17:17:40;10.80;69.60
42095;DHT22;27753;55.724;37.612;2023-03-23T17:20:07;10.70;69.80
42095;DHT22;27753;55.724;37.612;2023-03-23T17:22:35;10.60;70.10
42095;DHT22;27753;55.724;37.612;2023-03-23T17:25:01;10.60;70.60
42095;DHT22;27753;55.724;37.612;2023-03-23T17:27:28;10.50;70.60
42095;DHT22;27753;55.724;37.612;2023-03-23T17:29:55;10.50;70.90
42095;DHT22;27753;55.724;37.612;2023-03-23T17:32:21;10.50;71.10
42095;DHT22;27753;55.724;37.612;2023-03-23T17:34:49;10.40;71.10
42095;DHT22;27753;55.724;37.612;2023-03-23T17:37:15;10.50;71.10